Weather at Northwest Helicopters Heliport [CLOSED]

Public forecast

Using degrees Fahrenheit for public forecast. Weather courtesy of forecast.io.

Closest aviation weather report (METAR) to Northwest Helicopters Heliport

Report is more than 6 hours old.

Closest report is Olympia Regional Airport, 0.3 nm (0.6 km) SSW.

2024/06/24 05:54 (retrieved 1 day ago)

KOLM 240554Z AUTO 17003KT 10SM CLR 12/08 A3009 RMK AO2 SLP190 T01170078 10194 20111 53008

Closest aviation forecast (TAF) to Northwest Helicopters Heliport

Forecast is more than 12 hours old.

Closest forecast is Olympia Regional Airport, 0.3 nm (0.6 km) SSW.

2024/06/24 18:42 (retrieved 14 hours ago)

TAF KOLM 241740Z 2418/2518 30005KT P6SM BKN025 OVC030 FM242100 02005KT P6SM BKN100 FM250300 01006KT P6SM SCT250